Redgranite, Wisconsin
Current Conditions -  °F | °C
As of 10:56 PM on Friday 28 Nov 2014 (Local Time) from KY50 Reporting Station
Haze Haze  
Wind Chill: 27°   Ceiling: 1000
Heat Index: 27°   Visibility: 5mi
Dew Point: 26°   Wind: 0mph
Humidity: 96%   Direction: NA
Pressure: 29.84"   Gusts: NA
Location:  44.04°N, 89.1°W
Report Text: KY50 290456Z AUTO 00000KT 5SM BR OVC010 M03/M03 A2984 RMK AO2 TSNO T10271033 SLP114
Loading
Personal Weather Stations






























Interactive Weather Map New forecast layout! Learn more

10-Day Weather Forecast

Advertisements
Track Severe Weather on mobile